Time;durP1;ratioP1;P1;durP2;ratioP2;P2;SDS_P1;SDS_P2;PMS_P1;PMS_P2;Temp;Humidity;BMP_temperature;BMP_pressure;BME280_temperature;BME280_humidity;BME280_pressure;Samples;Min_cycle;Max_cycle;Signal;HPM_P1;HPM_P2
2022/04/08 00:01:01;;;;;;;6.20;2.30;;;7.60;90.30;;;;;;5015670;28;20486;-71
2022/04/08 00:03:27;;;;;;;5.43;2.42;;;7.70;89.70;;;;;;4996813;28;20036;-71
2022/04/08 00:05:54;;;;;;;5.95;2.13;;;7.70;88.60;;;;;;5029348;28;20046;-70
2022/04/08 00:08:20;;;;;;;4.57;1.92;;;7.70;88.70;;;;;;5030494;28;20026;-70
2022/04/08 00:10:46;;;;;;;3.75;1.98;;;7.70;89.90;;;;;;5013986;28;20026;-71
2022/04/08 00:13:11;;;;;;;5.47;1.90;;;7.70;90.00;;;;;;5021204;28;20111;-71
2022/04/08 00:15:38;;;;;;;5.18;2.33;;;7.70;90.20;;;;;;4998508;28;20029;-70
2022/04/08 00:18:04;;;;;;;5.57;2.47;;;7.70;90.50;;;;;;5003247;28;20036;-71
2022/04/08 00:20:32;;;;;;;3.60;2.00;;;7.70;90.50;;;;;;5015381;28;20084;-71
2022/04/08 00:22:58;;;;;;;5.40;2.20;;;7.70;91.10;;;;;;5044716;23;20045;-68
2022/04/08 00:25:24;;;;;;;5.35;2.22;;;7.60;91.00;;;;;;5034635;28;20047;-68
2022/04/08 00:27:49;;;;;;;4.60;2.42;;;7.60;91.40;;;;;;5045952;28;20552;-68
2022/04/08 00:30:15;;;;;;;3.92;2.28;;;7.60;91.20;;;;;;5033213;28;20021;-68
2022/04/08 00:32:40;;;;;;;7.70;2.28;;;7.60;91.00;;;;;;5052875;28;20359;-68
2022/04/08 00:35:06;;;;;;;6.30;2.88;;;7.60;91.50;;;;;;5052795;28;20029;-68
2022/04/08 00:37:32;;;;;;;4.28;2.50;;;7.60;91.60;;;;;;5052691;28;20029;-68
2022/04/08 00:39:58;;;;;;;4.65;2.53;;;7.60;92.00;;;;;;5034966;28;20036;-69
2022/04/08 00:42:23;;;;;;;5.05;2.40;;;7.50;91.60;;;;;;5031369;28;20032;-68
2022/04/08 00:44:49;;;;;;;4.95;2.70;;;7.50;92.10;;;;;;5044975;28;20489;-67
2022/04/08 00:47:15;;;;;;;6.60;2.50;;;7.40;92.20;;;;;;5052674;28;20075;-69
2022/04/08 00:49:41;;;;;;;5.00;2.38;;;7.40;92.50;;;;;;5047645;28;20080;-68
2022/04/08 00:52:08;;;;;;;3.30;2.28;;;7.50;92.10;;;;;;5044538;28;20096;-66
2022/04/08 00:54:34;;;;;;;5.72;2.42;;;7.50;92.30;;;;;;5052660;28;20098;-67
2022/04/08 00:57:00;;;;;;;4.82;2.50;;;7.40;92.20;;;;;;5051225;28;20060;-67
2022/04/08 00:59:26;;;;;;;4.65;2.13;;;7.40;91.90;;;;;;5043749;28;20027;-66
2022/04/08 01:01:52;;;;;;;5.53;2.30;;;7.50;91.70;;;;;;5051972;28;20040;-67
2022/04/08 01:04:17;;;;;;;3.97;2.00;;;7.50;91.90;;;;;;5049579;28;20481;-67
2022/04/08 01:06:44;;;;;;;2.75;1.70;;;7.40;91.70;;;;;;5050477;28;20025;-68
2022/04/08 01:09:10;;;;;;;2.58;1.60;;;7.50;91.60;;;;;;5052733;28;20017;-68
2022/04/08 01:11:37;;;;;;;2.58;1.40;;;7.50;90.90;;;;;;5051000;28;20017;-67
2022/04/08 01:14:10;;;;;;;3.90;1.77;;;7.50;90.30;;;;;;5048400;28;20031;-68
2022/04/08 01:16:36;;;;;;;2.78;1.40;;;7.60;90.50;;;;;;5030463;28;20113;-67
2022/04/08 01:19:02;;;;;;;1.83;1.20;;;7.50;90.40;;;;;;5028447;28;20029;-67
2022/04/08 01:21:28;;;;;;;4.40;1.65;;;7.50;90.10;;;;;;5033500;28;20055;-68
2022/04/08 01:23:56;;;;;;;2.65;1.75;;;7.50;89.40;;;;;;5052271;28;20432;-69
2022/04/08 01:26:21;;;;;;;2.13;1.33;;;7.50;89.10;;;;;;5052566;28;20690;-68
2022/04/08 01:28:47;;;;;;;3.42;1.40;;;7.50;88.70;;;;;;5032288;28;20025;-69
2022/04/08 01:31:13;;;;;;;3.17;1.10;;;7.50;89.00;;;;;;5040359;28;20047;-68
2022/04/08 01:33:39;;;;;;;2.78;1.23;;;7.50;89.40;;;;;;5044552;28;20021;-68
2022/04/08 01:36:05;;;;;;;1.65;1.20;;;7.40;89.00;;;;;;5054766;28;20013;-68
2022/04/08 01:38:30;;;;;;;4.22;1.17;;;7.50;88.40;;;;;;5054898;28;20032;-67
2022/04/08 01:40:56;;;;;;;2.28;1.17;;;7.50;88.80;;;;;;5044979;28;20489;-67
2022/04/08 01:43:21;;;;;;;1.75;1.13;;;7.50;88.50;;;;;;5049652;28;20032;-66
2022/04/08 01:45:47;;;;;;;1.55;1.10;;;7.50;89.10;;;;;;5046605;28;20052;-67
2022/04/08 01:48:13;;;;;;;2.33;1.33;;;7.50;89.10;;;;;;5034615;28;20036;-66
2022/04/08 01:50:38;;;;;;;3.33;1.30;;;7.40;89.60;;;;;;5052710;28;20032;-67
2022/04/08 01:53:04;;;;;;;2.80;1.23;;;7.40;90.00;;;;;;5050860;28;20515;-68
2022/04/08 01:55:30;;;;;;;3.38;1.30;;;7.40;89.70;;;;;;5039612;28;20106;-67
2022/04/08 01:57:55;;;;;;;2.63;1.42;;;7.40;89.60;;;;;;5049589;28;20024;-68
2022/04/08 02:00:21;;;;;;;2.85;1.63;;;7.40;89.70;;;;;;5043068;28;20025;-67
2022/04/08 02:02:46;;;;;;;3.75;1.30;;;7.40;89.60;;;;;;5051059;28;20109;-68
2022/04/08 02:05:12;;;;;;;4.85;1.50;;;7.40;89.30;;;;;;5033516;28;20025;-68
2022/04/08 02:07:38;;;;;;;3.65;1.50;;;7.40;89.00;;;;;;5044078;28;20461;-67
2022/04/08 02:10:07;;;;;;;2.30;1.45;;;7.40;88.90;;;;;;5039517;28;20036;-67
2022/04/08 02:12:32;;;;;;;3.03;1.27;;;7.40;89.50;;;;;;5017689;28;20043;-67
2022/04/08 02:14:58;;;;;;;2.28;1.50;;;7.40;89.60;;;;;;5025305;28;20112;-67
2022/04/08 02:17:28;;;;;;;6.40;1.48;;;7.40;89.20;;;;;;5050355;28;20040;-68
2022/04/08 02:19:54;;;;;;;3.28;1.17;;;7.40;89.10;;;;;;5033557;28;20120;-68
2022/04/08 02:22:21;;;;;;;3.97;1.50;;;7.40;89.00;;;;;;5048749;28;20055;-68
2022/04/08 02:24:49;;;;;;;4.53;1.48;;;7.40;88.60;;;;;;5044874;28;20115;-68
2022/04/08 02:27:14;;;;;;;1.98;1.30;;;7.40;88.80;;;;;;5054816;28;20096;-69
2022/04/08 02:29:40;;;;;;;3.17;1.50;;;7.40;89.30;;;;;;5051479;28;20025;-68
2022/04/08 02:32:06;;;;;;;6.00;1.48;;;7.40;88.90;;;;;;5038702;28;20018;-67
2022/04/08 02:34:36;;;;;;;2.80;1.20;;;7.40;87.80;;;;;;5053755;28;20048;-67
2022/04/08 02:37:03;;;;;;;3.78;1.10;;;7.40;88.70;;;;;;5048510;28;20026;-69
2022/04/08 02:39:28;;;;;;;4.00;1.55;;;7.40;88.40;;;;;;5051239;28;20053;-70
2022/04/08 02:41:54;;;;;;;3.72;1.38;;;7.40;87.50;;;;;;5050043;28;20025;-69
2022/04/08 02:44:19;;;;;;;5.43;1.30;;;7.40;87.20;;;;;;5027159;28;20065;-67
2022/04/08 02:46:45;;;;;;;3.38;1.30;;;7.40;86.20;;;;;;5040843;28;20080;-68
2022/04/08 02:49:11;;;;;;;3.75;1.38;;;7.40;86.70;;;;;;5053233;28;20029;-67
2022/04/08 02:51:36;;;;;;;4.05;1.52;;;7.40;86.10;;;;;;5058831;28;20096;-67
2022/04/08 02:54:02;;;;;;;4.63;1.40;;;7.40;85.30;;;;;;5046159;28;20371;-69
2022/04/08 02:56:28;;;;;;;6.30;1.20;;;7.40;86.00;;;;;;5040707;28;20060;-69
2022/04/08 02:58:54;;;;;;;4.30;1.55;;;7.40;85.50;;;;;;5054903;28;20032;-69
2022/04/08 03:01:20;;;;;;;3.22;1.50;;;7.40;85.60;;;;;;5045609;28;20017;-67
2022/04/08 03:03:46;;;;;;;3.30;1.20;;;7.40;86.40;;;;;;5048185;28;20051;-67
2022/04/08 03:06:11;;;;;;;3.05;1.35;;;7.40;85.80;;;;;;5054243;28;20260;-68
2022/04/08 03:08:37;;;;;;;3.65;1.10;;;7.40;85.30;;;;;;5054482;28;20040;-66
2022/04/08 03:11:02;;;;;;;4.20;1.35;;;7.50;85.20;;;;;;5053995;28;20393;-67
2022/04/08 03:13:28;;;;;;;3.72;1.42;;;7.50;85.00;;;;;;5052208;28;20033;-68
2022/04/08 03:15:54;;;;;;;7.78;1.65;;;7.50;85.70;;;;;;5053003;28;20021;-67
2022/04/08 03:18:19;;;;;;;3.83;1.30;;;7.40;86.00;;;;;;5051266;28;20060;-67
2022/04/08 03:20:45;;;;;;;2.17;1.40;;;7.50;85.90;;;;;;5054631;28;20025;-67
2022/04/08 03:23:11;;;;;;;4.93;1.50;;;7.40;85.90;;;;;;5054080;28;20090;-66
2022/04/08 03:25:36;;;;;;;3.67;1.30;;;7.40;86.60;;;;;;5054333;28;20108;-68
2022/04/08 03:28:02;;;;;;;3.38;1.55;;;7.50;86.30;;;;;;5045620;28;20033;-68
2022/04/08 03:30:28;;;;;;;3.08;1.30;;;7.40;86.00;;;;;;5045835;28;20447;-68
2022/04/08 03:32:55;;;;;;;2.17;1.20;;;7.50;84.90;;;;;;5052699;28;20013;-67
2022/04/08 03:35:21;;;;;;;3.80;1.30;;;7.50;85.40;;;;;;5053311;28;20049;-68
2022/04/08 03:37:46;;;;;;;2.72;1.38;;;7.50;85.90;;;;;;5053828;28;20059;-68
2022/04/08 03:40:12;;;;;;;5.47;1.20;;;7.50;85.00;;;;;;5054477;28;20037;-68
2022/04/08 03:42:38;;;;;;;3.65;1.20;;;7.50;85.60;;;;;;5035411;28;20025;-67
2022/04/08 03:45:05;;;;;;;1.88;1.20;;;7.60;85.10;;;;;;5045912;28;20082;-68
2022/04/08 03:47:30;;;;;;;4.50;1.15;;;7.50;85.30;;;;;;5053393;28;20032;-68
2022/04/08 03:49:57;;;;;;;2.63;1.48;;;7.50;86.70;;;;;;5052369;28;20025;-68
2022/04/08 03:52:23;;;;;;;2.40;1.45;;;7.50;89.00;;;;;;5027310;28;20021;-68
2022/04/08 03:54:49;;;;;;;2.60;1.83;;;7.40;90.00;;;;;;5045039;28;20036;-68
2022/04/08 03:57:15;;;;;;;4.35;1.40;;;7.40;90.40;;;;;;5052291;28;20025;-68
2022/04/08 03:59:44;;;;;;;3.35;1.60;;;7.30;90.80;;;;;;5045623;28;20101;-68
2022/04/08 04:02:10;;;;;;;2.67;1.50;;;7.30;90.80;;;;;;5053554;28;20021;-69
2022/04/08 04:04:35;;;;;;;3.47;1.45;;;7.30;91.00;;;;;;5052405;28;20070;-68
2022/04/08 04:07:01;;;;;;;3.08;1.40;;;7.30;91.00;;;;;;5046960;28;20032;-67
2022/04/08 04:09:27;;;;;;;3.13;1.55;;;7.20;91.10;;;;;;5051332;28;20021;-68
2022/04/08 04:11:52;;;;;;;1.77;1.30;;;7.20;91.30;;;;;;5023017;28;20033;-68
2022/04/08 04:14:18;;;;;;;2.22;1.25;;;7.20;91.20;;;;;;5034670;28;20400;-68
2022/04/08 04:16:44;;;;;;;3.05;1.20;;;7.20;91.10;;;;;;5039492;28;20505;-68
2022/04/08 04:19:09;;;;;;;1.45;1.00;;;7.10;91.30;;;;;;5033565;28;20037;-69
2022/04/08 04:21:35;;;;;;;1.65;1.20;;;7.10;90.70;;;;;;5038575;28;20139;-67
2022/04/08 04:24:01;;;;;;;1.33;0.95;;;7.10;90.80;;;;;;5034193;28;20029;-67
2022/04/08 04:26:26;;;;;;;2.85;0.90;;;7.10;90.50;;;;;;5053350;28;20064;-68
2022/04/08 04:28:52;;;;;;;1.70;1.10;;;7.10;90.10;;;;;;5052106;28;20028;-68
2022/04/08 04:31:17;;;;;;;2.72;1.27;;;7.00;90.30;;;;;;5044628;28;20025;-69
2022/04/08 04:33:43;;;;;;;2.08;1.38;;;7.00;90.00;;;;;;5053151;28;20028;-68
2022/04/08 04:36:11;;;;;;;1.80;1.00;;;7.00;88.50;;;;;;5043539;28;20021;-68
2022/04/08 04:38:36;;;;;;;2.63;0.98;;;6.90;87.80;;;;;;5043579;28;20431;-68
2022/04/08 04:41:02;;;;;;;1.92;1.13;;;6.90;86.40;;;;;;5041155;28;20104;-67
2022/04/08 04:43:27;;;;;;;2.45;1.00;;;6.90;86.40;;;;;;5042710;28;20404;-68
2022/04/08 04:45:53;;;;;;;2.38;1.02;;;6.90;86.10;;;;;;5043908;28;20088;-67
2022/04/08 04:48:19;;;;;;;2.95;1.10;;;6.80;85.30;;;;;;5051680;28;20028;-67
2022/04/08 04:50:46;;;;;;;1.38;1.02;;;6.70;85.70;;;;;;5032435;28;20452;-72
2022/04/08 04:53:12;;;;;;;2.72;1.30;;;6.70;85.10;;;;;;5028883;28;20021;-70
2022/04/08 04:55:38;;;;;;;2.85;1.38;;;6.60;85.30;;;;;;5043835;28;20383;-71
2022/04/08 04:58:04;;;;;;;3.40;1.10;;;6.50;86.20;;;;;;5044788;28;20032;-69
2022/04/08 05:00:29;;;;;;;2.25;1.30;;;6.50;86.30;;;;;;5046952;28;20022;-72
2022/04/08 05:02:55;;;;;;;2.13;1.20;;;6.50;85.20;;;;;;5048225;28;20037;-71
2022/04/08 05:05:23;;;;;;;2.88;1.30;;;6.50;85.30;;;;;;5050203;28;20071;-74
2022/04/08 05:07:49;;;;;;;2.35;1.10;;;6.50;86.00;;;;;;5027870;28;20124;-72
2022/04/08 05:10:15;;;;;;;3.42;1.30;;;6.40;86.80;;;;;;5032671;28;20021;-73
2022/04/08 05:12:41;;;;;;;4.07;1.33;;;6.30;86.70;;;;;;5047733;28;20303;-69
2022/04/08 05:15:12;;;;;;;4.32;1.30;;;6.40;86.90;;;;;;5046619;28;20114;-71
2022/04/08 05:17:38;;;;;;;2.00;1.42;;;6.30;87.50;;;;;;5026619;28;20045;-73
2022/04/08 05:20:08;;;;;;;3.67;1.60;;;6.40;88.70;;;;;;5033566;28;20033;-70
2022/04/08 05:22:35;;;;;;;6.65;1.50;;;6.40;88.60;;;;;;5051359;28;20396;-67
2022/04/08 05:25:01;;;;;;;3.10;1.45;;;6.40;90.00;;;;;;5033282;28;20040;-70
2022/04/08 05:27:27;;;;;;;2.17;1.42;;;6.40;89.50;;;;;;5051380;28;20029;-70
2022/04/08 05:29:53;;;;;;;3.60;1.42;;;6.40;89.60;;;;;;5049520;28;20534;-71
2022/04/08 05:32:19;;;;;;;3.38;1.25;;;6.40;89.60;;;;;;5045694;28;20025;-69
2022/04/08 05:34:44;;;;;;;4.55;1.55;;;6.50;89.70;;;;;;5051503;28;20393;-68
2022/04/08 05:37:12;;;;;;;5.28;1.52;;;6.40;90.30;;;;;;5050421;28;20029;-69
2022/04/08 05:39:37;;;;;;;2.55;1.20;;;6.40;90.30;;;;;;5037151;28;20095;-68
2022/04/08 05:42:05;;;;;;;5.25;1.60;;;6.60;90.20;;;;;;5060937;28;20029;-69
2022/04/08 05:44:31;;;;;;;5.43;1.65;;;6.60;89.90;;;;;;5059470;28;20020;-69
2022/04/08 05:46:56;;;;;;;4.90;1.60;;;6.50;90.30;;;;;;5044846;28;20413;-69
2022/04/08 05:49:22;;;;;;;3.40;1.95;;;6.50;90.40;;;;;;5054881;28;20100;-68
2022/04/08 05:51:47;;;;;;;1.92;1.40;;;6.40;90.60;;;;;;5050340;28;20033;-69
2022/04/08 05:54:13;;;;;;;3.67;1.67;;;6.40;90.90;;;;;;5034618;28;20026;-69
2022/04/08 05:56:38;;;;;;;4.32;2.20;;;6.50;91.10;;;;;;5036515;28;20029;-69
2022/04/08 05:59:04;;;;;;;6.20;1.85;;;6.50;91.20;;;;;;5030846;28;20505;-68
2022/04/08 06:01:29;;;;;;;2.72;1.48;;;6.50;91.20;;;;;;5051805;28;20024;-69
2022/04/08 06:03:55;;;;;;;3.22;1.30;;;6.50;91.20;;;;;;5036712;28;20424;-71
2022/04/08 06:06:21;;;;;;;2.92;1.40;;;6.50;91.40;;;;;;5034369;28;20090;-69
2022/04/08 06:08:48;;;;;;;3.33;1.40;;;6.50;91.60;;;;;;5034241;28;20260;-68
2022/04/08 06:11:13;;;;;;;6.35;1.77;;;6.60;91.70;;;;;;5034567;28;20029;-69
2022/04/08 06:13:48;;;;;;;3.70;1.48;;;6.60;91.40;;;;;;5051854;28;20079;-70
2022/04/08 06:16:13;;;;;;;2.83;1.48;;;6.60;91.40;;;;;;5050063;28;20104;-72
2022/04/08 06:18:40;;;;;;;3.03;1.65;;;6.60;91.70;;;;;;5034938;28;20053;-71
2022/04/08 06:21:05;;;;;;;7.00;1.50;;;6.60;91.50;;;;;;5050304;28;20478;-69
2022/04/08 06:23:31;;;;;;;2.40;1.30;;;6.70;91.20;;;;;;5039621;28;20033;-72
2022/04/08 06:25:57;;;;;;;3.92;1.33;;;6.70;91.20;;;;;;5050010;28;20049;-69
2022/04/08 06:28:23;;;;;;;3.30;1.38;;;6.70;91.20;;;;;;5052054;28;20021;-68
2022/04/08 06:30:49;;;;;;;3.65;1.50;;;6.60;91.30;;;;;;5046161;28;20034;-65
2022/04/08 06:33:16;;;;;;;3.33;1.63;;;6.70;91.30;;;;;;5045454;28;20048;-68
2022/04/08 06:35:41;;;;;;;3.00;1.42;;;6.70;91.30;;;;;;5033527;28;20029;-70
2022/04/08 06:38:08;;;;;;;3.70;1.42;;;6.70;91.20;;;;;;5050563;28;20040;-67
2022/04/08 06:40:38;;;;;;;6.00;1.50;;;6.80;91.00;;;;;;5044693;28;20041;-69
2022/04/08 06:43:05;;;;;;;1.77;1.30;;;7.00;90.40;;;;;;5052615;28;20024;-69
2022/04/08 06:45:31;;;;;;;3.28;1.50;;;7.50;89.40;;;;;;5023571;28;20032;-68
2022/04/08 06:47:57;;;;;;;3.03;1.65;;;7.60;87.50;;;;;;5044681;28;20312;-71
2022/04/08 06:50:23;;;;;;;5.07;1.70;;;7.20;88.90;;;;;;5042228;28;20021;-68
2022/04/08 06:52:49;;;;;;;3.13;1.30;;;6.90;91.20;;;;;;5057378;28;20043;-69
2022/04/08 06:55:15;;;;;;;5.15;1.52;;;6.40;89.10;;;;;;5062179;28;20034;-73
2022/04/08 06:57:42;;;;;;;3.17;1.30;;;5.90;90.50;;;;;;5066216;28;20095;-68
2022/04/08 07:00:10;;;;;;;1.85;0.90;;;5.70;90.80;;;;;;5048621;28;20025;-69
2022/04/08 07:02:36;;;;;;;30.77;12.77;;;5.50;91.60;;;;;;5065883;28;20044;-69
2022/04/08 07:05:02;;;;;;;4.10;1.30;;;5.40;92.50;;;;;;5042242;28;20055;-70
2022/04/08 07:07:32;;;;;;;7.15;1.15;;;5.10;92.20;;;;;;5041417;28;20041;-69
2022/04/08 07:09:58;;;;;;;3.30;1.17;;;4.80;96.20;;;;;;5047136;28;20030;-68
2022/04/08 07:12:27;;;;;;;3.17;1.33;;;4.70;98.30;;;;;;5058882;28;20017;-68
2022/04/08 07:14:53;;;;;;;5.82;1.17;;;4.60;99.00;;;;;;5065616;28;20055;-69
2022/04/08 07:17:35;;;;;;;4.18;1.23;;;4.60;99.50;;;;;;5049097;28;20049;-70
2022/04/08 07:20:01;;;;;;;7.25;1.45;;;4.50;99.90;;;;;;5053671;28;20064;-69
2022/04/08 07:22:27;;;;;;;3.00;1.40;;;4.60;99.60;;;;;;5064380;28;20041;-70
2022/04/08 07:24:53;;;;;;;5.00;1.98;;;4.70;99.80;;;;;;5065775;28;20033;-69
2022/04/08 07:27:20;;;;;;;4.10;1.27;;;4.80;99.90;;;;;;5066495;28;20029;-69
2022/04/08 07:29:47;;;;;;;7.45;1.90;;;4.80;98.80;;;;;;5066620;28;20048;-69
2022/04/08 07:32:20;;;;;;;3.45;1.50;;;4.80;99.00;;;;;;5065243;28;20029;-69
2022/04/08 07:34:49;;;;;;;4.18;1.50;;;5.00;99.70;;;;;;5037899;28;20036;-69
2022/04/08 07:37:15;;;;;;;7.30;2.00;;;5.30;99.50;;;;;;5054764;28;20455;-69
2022/04/08 07:39:42;;;;;;;4.90;2.50;;;5.60;99.00;;;;;;5054977;28;20025;-68
2022/04/08 07:42:09;;;;;;;3.70;1.60;;;5.90;97.50;;;;;;5055025;28;20040;-69
2022/04/08 07:44:35;;;;;;;3.90;1.30;;;6.00;95.90;;;;;;5055000;28;20025;-69
2022/04/08 07:47:01;;;;;;;5.03;1.50;;;6.10;96.50;;;;;;5055069;28;20064;-69
2022/04/08 07:49:26;;;;;;;6.07;1.73;;;6.30;96.60;;;;;;5036600;28;20029;-68
2022/04/08 07:51:52;;;;;;;5.28;1.38;;;6.50;96.40;;;;;;5054706;28;20574;-69
2022/04/08 07:54:17;;;;;;;6.55;1.77;;;6.60;95.70;;;;;;5037001;28;20104;-69
2022/04/08 07:56:43;;;;;;;6.90;1.50;;;7.10;95.20;;;;;;5054425;28;20485;-69
2022/04/08 07:59:09;;;;;;;6.28;1.98;;;7.00;94.60;;;;;;5054718;28;20044;-69
2022/04/08 08:01:34;;;;;;;7.13;1.67;;;8.90;92.70;;;;;;5054632;28;20027;-68
2022/04/08 08:04:00;;;;;;;4.22;1.80;;;10.00;83.60;;;;;;5054343;28;20401;-68
2022/04/08 08:06:25;;;;;;;8.27;1.80;;;10.90;88.40;;;;;;5054529;28;20079;-69
2022/04/08 08:08:53;;;;;;;7.22;2.13;;;10.60;82.30;;;;;;5054573;28;20025;-69
2022/04/08 08:11:18;;;;;;;11.13;5.53;;;10.50;82.40;;;;;;5036782;28;20547;-68
2022/04/08 08:13:44;;;;;;;14.05;6.47;;;10.70;79.70;;;;;;5056652;28;20036;-69
2022/04/08 08:16:09;;;;;;;5.03;1.20;;;11.30;74.20;;;;;;5058329;28;20024;-69
2022/04/08 08:18:35;;;;;;;6.78;2.15;;;11.60;71.60;;;;;;5056195;28;20017;-69
2022/04/08 08:21:01;;;;;;;4.07;1.33;;;12.00;68.50;;;;;;5038730;28;20489;-68
2022/04/08 08:23:27;;;;;;;5.57;1.85;;;11.90;67.90;;;;;;5065027;28;20487;-69
2022/04/08 08:25:53;;;;;;;4.50;1.58;;;11.90;66.80;;;;;;5063237;28;20040;-69
2022/04/08 08:28:19;;;;;;;7.40;1.73;;;11.30;68.80;;;;;;5063484;28;20036;-68
2022/04/08 08:30:45;;;;;;;6.40;1.70;;;10.70;69.10;;;;;;5064131;28;20040;-68
2022/04/08 08:33:11;;;;;;;6.15;1.48;;;10.10;71.10;;;;;;5061678;28;20021;-68
2022/04/08 08:35:37;;;;;;;5.55;1.60;;;10.20;67.90;;;;;;5061790;28;20542;-69
2022/04/08 08:38:04;;;;;;;6.70;1.88;;;10.40;68.40;;;;;;5054241;28;20366;-69
2022/04/08 08:40:33;;;;;;;11.35;2.15;;;10.90;67.70;;;;;;5054013;28;20103;-69
2022/04/08 08:43:00;;;;;;;10.38;2.10;;;11.50;65.10;;;;;;5052816;28;20036;-69
2022/04/08 08:45:32;;;;;;;11.68;2.17;;;11.10;64.40;;;;;;5053507;28;20032;-69
2022/04/08 08:48:02;;;;;;;8.35;1.98;;;10.80;65.10;;;;;;5053612;28;20082;-68
2022/04/08 08:50:29;;;;;;;8.68;2.00;;;10.30;65.20;;;;;;5053448;28;20537;-68
2022/04/08 08:52:55;;;;;;;9.85;2.20;;;10.60;64.20;;;;;;5054022;28;20100;-69
2022/04/08 08:55:22;;;;;;;7.85;1.80;;;10.00;65.50;;;;;;5053892;28;20052;-69
2022/04/08 08:57:49;;;;;;;6.60;1.90;;;9.70;65.50;;;;;;5052106;28;20116;-70
2022/04/08 09:00:18;;;;;;;7.32;1.77;;;9.60;66.40;;;;;;5054079;28;20519;-69
2022/04/08 09:02:45;;;;;;;10.63;2.00;;;9.20;66.80;;;;;;5046094;28;20048;-69
2022/04/08 09:05:26;;;;;;;8.35;1.80;;;9.40;66.00;;;;;;5058281;28;20032;-68
2022/04/08 09:07:54;;;;;;;5.55;1.38;;;9.60;65.90;;;;;;5055106;28;20530;-69
2022/04/08 09:10:28;;;;;;;11.77;1.75;;;11.00;59.80;;;;;;5055066;28;20509;-69
2022/04/08 09:12:55;;;;;;;5.15;1.60;;;12.50;57.40;;;;;;5054914;28;20047;-69
2022/04/08 09:15:23;;;;;;;7.22;1.80;;;12.40;55.10;;;;;;5057565;28;20033;-68
2022/04/08 09:17:49;;;;;;;8.48;1.80;;;11.80;57.70;;;;;;5057054;28;20033;-69
2022/04/08 09:20:15;;;;;;;7.85;1.83;;;10.80;59.30;;;;;;5035615;28;20484;-69
2022/04/08 09:22:40;;;;;;;8.55;2.20;;;10.10;62.10;;;;;;5052553;28;20040;-69
2022/04/08 09:25:11;;;;;;;6.20;1.73;;;10.10;64.30;;;;;;5034706;28;20032;-69
2022/04/08 09:27:38;;;;;;;8.38;1.55;;;10.60;62.40;;;;;;5052487;28;20017;-69
2022/04/08 09:30:04;;;;;;;8.23;1.80;;;10.40;62.10;;;;;;5052823;28;20017;-68
2022/04/08 09:32:30;;;;;;;10.80;1.95;;;10.30;61.10;;;;;;5052060;28;20036;-70
2022/04/08 09:34:56;;;;;;;7.00;1.70;;;11.30;60.50;;;;;;5052739;28;20025;-68
2022/04/08 09:37:22;;;;;;;7.20;1.58;;;11.20;58.40;;;;;;5052672;28;20099;-69
2022/04/08 09:39:57;;;;;;;6.97;1.40;;;11.10;57.90;;;;;;5053014;28;20021;-70
2022/04/08 09:42:24;;;;;;;5.10;1.38;;;;;;;;;;5053771;28;20036;-70
2022/04/08 09:44:51;;;;;;;6.40;1.65;;;9.70;59.00;;;;;;5052860;28;20500;-68
2022/04/08 09:47:17;;;;;;;4.18;1.17;;;9.30;60.60;;;;;;5052394;28;20033;-69
2022/04/08 09:49:42;;;;;;;2.97;1.13;;;9.20;60.60;;;;;;5052943;28;20078;-68
2022/04/08 09:52:10;;;;;;;7.40;1.45;;;9.00;60.70;;;;;;5035009;28;20033;-68
2022/04/08 09:54:42;;;;;;;5.15;1.63;;;9.20;61.10;;;;;;5052820;28;20151;-69
2022/04/08 09:57:17;;;;;;;4.82;1.40;;;9.40;61.20;;;;;;5053195;28;20040;-68
2022/04/08 09:59:45;;;;;;;5.75;1.58;;;9.70;61.30;;;;;;5036072;28;20028;-69
2022/04/08 10:02:13;;;;;;;3.20;1.25;;;9.90;59.20;;;;;;5054059;28;20055;-68
2022/04/08 10:04:39;;;;;;;4.45;1.33;;;9.80;57.90;;;;;;5053521;28;20126;-69
2022/04/08 10:07:05;;;;;;;6.45;1.30;;;9.70;57.80;;;;;;5052231;28;20036;-69
2022/04/08 10:09:35;;;;;;;5.72;1.63;;;9.50;58.50;;;;;;5054016;28;20021;-69
2022/04/08 10:12:06;;;;;;;5.97;1.73;;;9.50;59.10;;;;;;5035864;28;20414;-69
2022/04/08 10:14:57;;;;;;;7.53;1.45;;;9.70;60.10;;;;;;5051614;28;20021;-69
2022/04/08 10:17:23;;;;;;;12.93;1.88;;;9.90;58.90;;;;;;5032756;28;20439;-70
2022/04/08 10:19:52;;;;;;;6.13;1.63;;;10.00;58.40;;;;;;5039082;28;20025;-69
2022/04/08 10:22:20;;;;;;;8.40;1.50;;;10.30;58.70;;;;;;5032766;28;20432;-69
2022/04/08 10:24:54;;;;;;;4.95;1.30;;;10.30;58.20;;;;;;5032943;28;20127;-70
2022/04/08 10:27:38;;;;;;;7.30;1.60;;;10.00;57.50;;;;;;5034626;28;20430;-69
2022/04/08 10:30:25;;;;;;;6.30;2.58;;;9.60;58.60;;;;;;5034586;28;20318;-69
2022/04/08 10:33:06;;;;;;;7.00;1.60;;;9.60;60.50;;;;;;5035565;28;20044;-70
2022/04/08 10:35:31;;;;;;;5.30;1.30;;;9.50;59.60;;;;;;5055497;28;20032;-69
2022/04/08 10:38:06;;;;;;;5.82;1.98;;;9.50;59.10;;;;;;5056375;28;20029;-69
2022/04/08 10:40:37;;;;;;;3.17;1.40;;;9.60;58.70;;;;;;5056304;28;20044;-69
2022/04/08 10:43:07;;;;;;;3.30;1.35;;;9.60;57.60;;;;;;5054701;28;20040;-69
2022/04/08 10:45:33;;;;;;;4.32;1.90;;;9.70;58.80;;;;;;5038915;28;20056;-69
2022/04/08 10:48:15;;;;;;;4.45;1.27;;;9.80;58.00;;;;;;5057019;28;20039;-70
2022/04/08 10:50:41;;;;;;;5.00;1.60;;;9.80;57.40;;;;;;5038930;28;20017;-69
2022/04/08 10:53:18;;;;;;;3.47;1.30;;;9.90;57.10;;;;;;5055626;28;20454;-69
2022/04/08 10:56:09;;;;;;;4.70;1.73;;;9.80;55.70;;;;;;5055567;28;20017;-68
2022/04/08 10:58:43;;;;;;;3.53;1.10;;;9.70;56.10;;;;;;5056414;28;20489;-69
2022/04/08 11:01:22;;;;;;;4.18;1.40;;;9.80;55.00;;;;;;5055967;28;20041;-68
2022/04/08 11:04:00;;;;;;;6.57;2.15;;;9.90;55.30;;;;;;5056221;28;20103;-69
2022/04/08 11:06:31;;;;;;;8.50;1.58;;;10.10;55.10;;;;;;5055776;28;20021;-69
2022/04/08 11:09:03;;;;;;;2.70;1.52;;;10.10;55.10;;;;;;5056335;28;20021;-69
2022/04/08 11:11:30;;;;;;;4.28;1.30;;;9.70;55.10;;;;;;5055464;28;20099;-70
2022/04/08 11:13:57;;;;;;;2.90;1.48;;;9.40;57.60;;;;;;5055570;28;20072;-69
2022/04/08 11:16:23;;;;;;;3.97;1.33;;;9.30;57.90;;;;;;5055254;28;20025;-68
2022/04/08 11:18:49;;;;;;;3.70;1.60;;;9.50;59.00;;;;;;5055285;28;20044;-68
2022/04/08 11:21:17;;;;;;;4.15;1.42;;;9.70;57.80;;;;;;5056950;28;20025;-69
2022/04/08 11:23:43;;;;;;;4.45;1.30;;;9.70;57.90;;;;;;5057251;28;20327;-69
2022/04/08 11:26:11;;;;;;;4.88;1.83;;;9.80;58.20;;;;;;5055451;28;20037;-69
2022/04/08 11:28:37;;;;;;;5.57;1.48;;;9.80;58.30;;;;;;5055498;28;20032;-68
2022/04/08 11:31:02;;;;;;;4.30;1.52;;;9.80;58.00;;;;;;5054829;28;20621;-70
2022/04/08 11:33:31;;;;;;;5.28;1.67;;;9.70;58.20;;;;;;5053374;28;20029;-68
2022/04/08 11:35:58;;;;;;;6.07;1.67;;;10.00;59.60;;;;;;5054565;28;20025;-68
2022/04/08 11:38:25;;;;;;;6.05;1.55;;;9.90;58.60;;;;;;5036765;28;20032;-69
2022/04/08 11:40:51;;;;;;;5.00;1.92;;;9.90;59.40;;;;;;5054587;28;20381;-68
2022/04/08 11:43:18;;;;;;;5.68;1.73;;;9.90;59.20;;;;;;5053114;28;20021;-68
2022/04/08 11:45:44;;;;;;;4.38;1.50;;;10.00;59.10;;;;;;5054554;28;20522;-68
2022/04/08 11:48:15;;;;;;;6.30;2.03;;;10.40;58.00;;;;;;5053732;28;20111;-68
2022/04/08 11:50:44;;;;;;;4.07;1.50;;;10.40;56.90;;;;;;5054766;28;20021;-70
2022/04/08 11:53:21;;;;;;;4.60;1.50;;;10.00;56.30;;;;;;5054950;28;20024;-70
2022/04/08 11:55:59;;;;;;;2.53;1.30;;;9.80;58.10;;;;;;5035922;28;20021;-70
2022/04/08 11:58:27;;;;;;;4.47;1.90;;;9.80;57.60;;;;;;5054718;28;20033;-69
2022/04/08 12:00:53;;;;;;;4.45;1.60;;;9.80;57.70;;;;;;5054597;28;20027;-69
2022/04/08 12:03:26;;;;;;;5.25;1.60;;;9.70;57.90;;;;;;5035383;28;20480;-68
2022/04/08 12:05:52;;;;;;;6.20;1.90;;;9.70;58.70;;;;;;5037009;28;20374;-69
2022/04/08 12:08:19;;;;;;;5.18;1.50;;;9.70;58.10;;;;;;5036922;28;20032;-68
2022/04/08 12:10:49;;;;;;;3.65;1.67;;;9.60;57.90;;;;;;5037270;28;20482;-69
2022/04/08 12:13:29;;;;;;;4.35;1.42;;;9.70;57.90;;;;;;5055337;28;20090;-70
2022/04/08 12:15:57;;;;;;;3.38;1.45;;;9.50;57.30;;;;;;5054765;28;20021;-68
2022/04/08 12:18:25;;;;;;;6.30;1.77;;;9.60;58.60;;;;;;5054693;28;20021;-69
2022/04/08 12:20:56;;;;;;;6.75;1.92;;;9.80;58.30;;;;;;5057341;28;20036;-68
2022/04/08 12:23:23;;;;;;;4.35;2.28;;;10.00;57.90;;;;;;5062143;23;20505;-69
2022/04/08 12:26:00;;;;;;;4.10;1.60;;;10.10;57.90;;;;;;5036431;28;20032;-71
2022/04/08 12:28:30;;;;;;;4.78;1.88;;;10.30;56.90;;;;;;5052487;28;20029;-71
2022/04/08 12:30:55;;;;;;;7.72;2.00;;;10.30;57.00;;;;;;5041008;28;20052;-72
2022/04/08 12:33:21;;;;;;;4.53;1.77;;;10.20;57.60;;;;;;5031873;28;20451;-73
2022/04/08 12:35:48;;;;;;;3.03;1.90;;;9.90;57.10;;;;;;5015596;28;20022;-71
2022/04/08 12:38:24;;;;;;;4.68;1.85;;;9.80;57.60;;;;;;5019664;28;20037;-71
2022/04/08 12:40:49;;;;;;;6.63;2.85;;;10.00;57.90;;;;;;5034354;28;20445;-70
2022/04/08 12:43:15;;;;;;;3.47;1.80;;;10.20;57.20;;;;;;5021305;28;20026;-71
2022/04/08 12:45:41;;;;;;;9.23;2.63;;;10.30;57.10;;;;;;5015224;28;20061;-71
2022/04/08 12:48:07;;;;;;;5.22;1.95;;;10.60;56.60;;;;;;5016723;28;20034;-70
2022/04/08 12:50:33;;;;;;;5.00;1.90;;;10.50;57.20;;;;;;5019008;28;20049;-71
2022/04/08 12:53:00;;;;;;;4.43;2.08;;;10.30;56.60;;;;;;5021494;28;20029;-71
2022/04/08 12:55:26;;;;;;;7.55;2.33;;;10.40;57.40;;;;;;5023371;28;20053;-73